KMUO

Mountain Home AFB Airport

Mountain Home, Idaho, USA
METAR KMUO 151258Z 10011KT 3SM BR OVC005 M04/M04 A3036 RMK AO2A SLP312 T10371037
Observed Flight Rules
Dec-15 @ 12:58 UTC (an hour ago) Instrument Flight Rules
Wind Visibility Clouds Conditions
100° at 11 knots 3 miles
  • Overcast at 500' AGL
  • Mist
Temperatures Readings
Current -4°C / 25°F
Dewpoint -4°C / 25°F
Humidity 100%
Altimeter 30.36" Hg
Pressure 1031.2 hPa
Elevation 913
METAR KMUO 151258Z 10011KT 3SM BR OVC005 M04/M04 A3036 RMK AO2A SLP312 T10371037
Observed Flight Rules
Dec-15 @ 12:58 UTC
(an hour ago)
IFR
Wind Visibility
100° at 11 knots 3 miles
Clouds
  • Overcast at 500' AGL
Conditions
  • Mist
Temperature Dewpoint
-4°C / 25°F -4°C / 25°F
Humidity Altimeter Pressure
100% 30.36" Hg 1031.2 hPa